Time;durP1;ratioP1;P1;durP2;ratioP2;P2;SDS_P1;SDS_P2;PMS_P1;PMS_P2;Temp;Humidity;BMP_temperature;BMP_pressure;BME280_temperature;BME280_humidity;BME280_pressure;Samples;Min_cycle;Max_cycle;Signal;HPM_P1;HPM_P2
2021/10/17 00:02:44;;;;;;;109.05;48.85;;;4.50;99.90;;;;;;6156392;23;20092;-94
2021/10/17 00:05:35;;;;;;;105.35;47.60;;;4.50;99.90;;;;;;6135804;23;20039;-94
2021/10/17 00:08:25;;;;;;;121.53;52.70;;;4.50;99.90;;;;;;6158335;23;20037;-94
2021/10/17 00:11:16;;;;;;;109.75;49.35;;;4.60;99.90;;;;;;6135888;23;20080;-94
2021/10/17 00:14:06;;;;;;;106.55;47.88;;;4.60;99.90;;;;;;6158096;23;20036;-94
2021/10/17 00:16:53;;;;;;;121.70;52.10;;;4.60;99.90;;;;;;6137515;23;20033;-94
2021/10/17 00:19:42;;;;;;;117.15;52.90;;;4.60;99.90;;;;;;6157910;23;20084;-94
2021/10/17 00:22:30;;;;;;;102.22;48.92;;;4.70;99.90;;;;;;6159238;23;20025;-94
2021/10/17 00:25:20;;;;;;;95.22;45.58;;;4.70;99.90;;;;;;6148496;23;20025;-93
2021/10/17 00:28:08;;;;;;;92.57;46.67;;;4.70;99.90;;;;;;6171732;23;20034;-94
2021/10/17 00:30:57;;;;;;;97.07;45.65;;;4.70;99.90;;;;;;6166900;23;20030;-94
2021/10/17 00:33:44;;;;;;;85.43;43.40;;;4.80;99.90;;;;;;6158724;23;20040;-94
2021/10/17 00:36:35;;;;;;;92.78;44.60;;;5.00;99.90;;;;;;6157069;23;20022;-94
2021/10/17 00:39:22;;;;;;;95.18;46.70;;;5.00;99.90;;;;;;6156598;23;20025;-94
2021/10/17 00:42:14;;;;;;;90.53;44.30;;;5.10;99.90;;;;;;6137583;23;20065;-94
2021/10/17 00:45:04;;;;;;;70.67;35.03;;;5.20;99.90;;;;;;6108601;23;20033;-94
2021/10/17 00:47:51;;;;;;;91.07;45.13;;;5.10;99.90;;;;;;6126939;23;20089;-94
2021/10/17 00:50:39;;;;;;;89.88;45.28;;;5.00;99.90;;;;;;6128382;23;20032;-94
2021/10/17 00:53:26;;;;;;;89.80;45.00;;;5.00;99.90;;;;;;6086158;23;20092;-93
2021/10/17 00:56:23;;;;;;;85.82;43.17;;;5.00;99.90;;;;;;6125548;23;20038;-94
2021/10/17 00:59:11;;;;;;;87.65;44.33;;;5.10;99.90;;;;;;6088481;23;20025;-93
2021/10/17 01:02:05;;;;;;;77.63;42.80;;;5.20;99.90;;;;;;6107175;23;20025;-93
2021/10/17 01:04:52;;;;;;;83.03;43.83;;;5.20;99.90;;;;;;6127003;23;20070;-94
2021/10/17 01:07:40;;;;;;;81.15;43.15;;;5.30;99.90;;;;;;6084968;23;20030;-93
2021/10/17 01:10:29;;;;;;;92.68;45.42;;;5.40;99.90;;;;;;6126705;23;20022;-94
2021/10/17 01:13:21;;;;;;;102.65;46.15;;;5.40;99.90;;;;;;6106575;23;20053;-94
2021/10/17 01:16:09;;;;;;;92.40;45.13;;;5.50;99.90;;;;;;6108346;23;20398;-94
2021/10/17 01:18:56;;;;;;;98.85;46.85;;;5.50;99.90;;;;;;6105820;23;20449;-93
2021/10/17 01:21:47;;;;;;;89.68;45.70;;;5.60;99.90;;;;;;6125337;23;20030;-91
2021/10/17 01:24:35;;;;;;;94.30;47.40;;;5.70;99.90;;;;;;6126473;23;20058;-94
2021/10/17 01:27:24;;;;;;;91.78;47.00;;;5.70;99.90;;;;;;6124490;23;20038;-93
2021/10/17 01:30:15;;;;;;;103.15;47.08;;;5.80;99.90;;;;;;6086303;23;20025;-94
2021/10/17 01:33:05;;;;;;;97.10;47.03;;;5.80;99.90;;;;;;6126189;23;20025;-93
2021/10/17 01:35:52;;;;;;;75.18;40.13;;;5.90;99.90;;;;;;6125927;23;20022;-94
2021/10/17 01:38:40;;;;;;;71.43;39.80;;;5.80;99.90;;;;;;6106754;23;20025;-94
2021/10/17 01:41:27;;;;;;;71.63;39.53;;;5.80;99.90;;;;;;6127694;23;20029;-93
2021/10/17 01:44:33;;;;;;;72.40;38.22;;;5.70;99.90;;;;;;6152457;23;20025;-94
2021/10/17 01:47:23;;;;;;;73.20;39.67;;;5.70;99.90;;;;;;6141195;23;20109;-93
2021/10/17 01:50:10;;;;;;;73.68;39.28;;;5.70;99.90;;;;;;6136435;23;20104;-93
2021/10/17 01:53:00;;;;;;;78.75;40.38;;;5.70;99.90;;;;;;6140820;23;20374;-93
2021/10/17 01:55:51;;;;;;;76.07;40.22;;;5.70;99.90;;;;;;6166923;23;20041;-94
2021/10/17 01:58:38;;;;;;;78.78;40.65;;;5.70;99.90;;;;;;6121289;23;20021;-93
2021/10/17 02:01:26;;;;;;;92.18;43.13;;;5.70;99.90;;;;;;6157365;23;20072;-93
2021/10/17 02:04:14;;;;;;;88.50;42.10;;;5.80;99.90;;;;;;6155783;23;20029;-94
2021/10/17 02:07:06;;;;;;;79.38;42.03;;;5.80;99.90;;;;;;6115296;23;20037;-93
2021/10/17 02:09:53;;;;;;;75.82;40.85;;;5.90;99.90;;;;;;6136517;23;20135;-93
2021/10/17 02:12:40;;;;;;;66.18;37.78;;;5.90;99.90;;;;;;6136446;23;20037;-92
2021/10/17 02:15:28;;;;;;;71.18;38.60;;;5.90;99.90;;;;;;6115227;23;20036;-93
2021/10/17 02:18:19;;;;;;;71.43;38.92;;;5.80;99.90;;;;;;6159152;23;20053;-94
2021/10/17 02:21:10;;;;;;;76.82;41.80;;;5.80;99.90;;;;;;6167705;23;20081;-94
2021/10/17 02:23:59;;;;;;;71.20;37.78;;;5.80;99.90;;;;;;6150585;23;20048;-94
2021/10/17 02:26:49;;;;;;;66.18;37.17;;;5.80;99.90;;;;;;6173743;23;20021;-94
2021/10/17 02:29:41;;;;;;;67.78;36.83;;;5.80;99.90;;;;;;6173839;23;20022;-93
2021/10/17 02:32:28;;;;;;;61.58;36.40;;;5.80;99.90;;;;;;6177246;23;20112;-94
2021/10/17 02:35:21;;;;;;;62.75;35.35;;;5.80;99.90;;;;;;6175695;23;20036;-93
2021/10/17 02:38:08;;;;;;;64.40;36.20;;;5.80;99.90;;;;;;6177057;23;20066;-93
2021/10/17 02:40:56;;;;;;;68.40;37.10;;;5.70;99.90;;;;;;6177334;23;20080;-94
2021/10/17 02:43:46;;;;;;;67.70;37.67;;;5.80;99.90;;;;;;6173727;23;20084;-93
2021/10/17 02:46:33;;;;;;;60.45;35.65;;;5.80;99.90;;;;;;6152488;23;20329;-94
2021/10/17 02:49:25;;;;;;;63.45;37.25;;;5.80;99.90;;;;;;6161877;23;20089;-94
2021/10/17 02:52:13;;;;;;;74.35;38.35;;;5.80;99.90;;;;;;6164852;23;20025;-93
2021/10/17 02:55:00;;;;;;;70.15;38.95;;;5.90;99.90;;;;;;6159816;23;20091;-94
2021/10/17 02:57:54;;;;;;;59.33;36.38;;;5.90;99.90;;;;;;6157070;23;20038;-93
2021/10/17 03:00:42;;;;;;;65.80;36.70;;;6.00;99.90;;;;;;6162070;23;20029;-94
2021/10/17 03:03:29;;;;;;;66.75;37.42;;;6.00;99.90;;;;;;6171957;23;20045;-95
2021/10/17 03:06:16;;;;;;;63.17;36.10;;;6.00;99.90;;;;;;6174412;23;20063;-93
2021/10/17 03:09:04;;;;;;;67.75;38.10;;;6.00;99.90;;;;;;6141767;23;20021;-94
2021/10/17 03:11:52;;;;;;;65.90;36.90;;;6.00;99.90;;;;;;6158156;23;20040;-95
2021/10/17 03:14:42;;;;;;;59.33;35.05;;;6.10;99.90;;;;;;6137184;23;20040;-94
2021/10/17 03:17:29;;;;;;;65.38;36.85;;;6.00;99.90;;;;;;6137334;23;20088;-90
2021/10/17 03:20:17;;;;;;;62.72;35.95;;;6.00;99.90;;;;;;6136933;23;20385;-94
2021/10/17 03:23:04;;;;;;;62.20;35.83;;;6.10;99.90;;;;;;6137623;23;20380;-92
2021/10/17 03:25:51;;;;;;;67.70;38.58;;;6.00;99.90;;;;;;6157903;23;20124;-91
2021/10/17 03:28:40;;;;;;;71.43;39.25;;;6.00;99.90;;;;;;6156846;23;20021;-92
2021/10/17 03:31:33;;;;;;;64.13;36.08;;;6.00;99.90;;;;;;6134635;23;20080;-93
2021/10/17 03:34:20;;;;;;;78.30;40.53;;;6.00;99.90;;;;;;6137672;23;20026;-94
2021/10/17 03:37:08;;;;;;;74.75;40.75;;;6.00;99.90;;;;;;6136810;23;20032;-94
2021/10/17 03:39:58;;;;;;;69.97;39.05;;;5.90;99.90;;;;;;6157525;23;20445;-92
2021/10/17 03:42:45;;;;;;;71.63;40.22;;;5.90;99.90;;;;;;6135131;23;20104;-91
2021/10/17 03:45:35;;;;;;;74.80;40.08;;;5.80;99.90;;;;;;6135785;23;20413;-94
2021/10/17 03:48:22;;;;;;;77.57;40.38;;;5.70;99.90;;;;;;6156998;23;20330;-93
2021/10/17 03:51:10;;;;;;;77.90;40.05;;;5.60;99.90;;;;;;6135368;23;20168;-93
2021/10/17 03:54:03;;;;;;;74.45;40.08;;;5.50;99.90;;;;;;6143211;23;20049;-93
2021/10/17 03:56:52;;;;;;;83.38;40.40;;;5.50;99.90;;;;;;6179851;23;20052;-93
2021/10/17 03:59:40;;;;;;;76.90;41.55;;;5.40;99.90;;;;;;6157420;23;20043;-93
2021/10/17 04:02:41;;;;;;;78.65;41.75;;;5.30;99.90;;;;;;6155764;23;20093;-93
2021/10/17 04:06:21;;;;;;;88.78;42.83;;;5.30;99.90;;;;;;6081977;23;20107;-94
2021/10/17 04:09:11;;;;;;;76.25;40.40;;;5.30;99.90;;;;;;6062710;23;20038;-87
2021/10/17 04:12:01;;;;;;;90.20;43.15;;;5.30;99.90;;;;;;6068202;23;20022;-88
2021/10/17 04:14:48;;;;;;;81.90;42.08;;;5.20;99.90;;;;;;6046233;23;20439;-90
2021/10/17 04:17:37;;;;;;;89.82;44.35;;;5.20;99.90;;;;;;6066154;23;20023;-89
2021/10/17 04:20:24;;;;;;;87.60;43.65;;;5.20;99.90;;;;;;6047035;23;20046;-90
2021/10/17 04:23:14;;;;;;;88.88;43.97;;;5.10;99.90;;;;;;6048575;23;20048;-89
2021/10/17 04:26:02;;;;;;;90.07;44.53;;;5.10;99.90;;;;;;6067697;23;20106;-89
2021/10/17 04:28:49;;;;;;;86.10;43.83;;;5.10;99.90;;;;;;6047560;23;20031;-90
2021/10/17 04:31:36;;;;;;;94.00;45.70;;;5.00;99.90;;;;;;6067190;23;20194;-90
2021/10/17 04:34:24;;;;;;;98.40;44.97;;;5.00;99.90;;;;;;6068739;23;20026;-90
2021/10/17 04:37:11;;;;;;;89.90;45.20;;;4.90;99.90;;;;;;6105848;23;20121;-90
2021/10/17 04:40:00;;;;;;;99.65;47.03;;;4.80;99.90;;;;;;6155596;23;20321;-91
2021/10/17 04:42:47;;;;;;;101.75;47.38;;;4.80;99.90;;;;;;6155391;23;20104;-89
2021/10/17 04:45:37;;;;;;;97.07;46.15;;;4.80;99.90;;;;;;6156301;23;20124;-89
2021/10/17 04:48:34;;;;;;;100.05;47.10;;;4.70;99.90;;;;;;6135041;23;20029;-90
2021/10/17 04:51:31;;;;;;;96.43;47.20;;;4.70;99.90;;;;;;6155697;23;20029;-91
2021/10/17 04:54:23;;;;;;;109.03;48.15;;;4.70;99.90;;;;;;6137373;23;20044;-90
2021/10/17 04:57:14;;;;;;;103.68;47.50;;;4.70;99.90;;;;;;6157069;23;20095;-90
2021/10/17 05:00:06;;;;;;;112.55;51.88;;;4.70;99.90;;;;;;6136208;23;20045;-89
2021/10/17 05:03:19;;;;;;;121.50;51.58;;;4.60;99.90;;;;;;6157549;23;20036;-91
2021/10/17 05:06:06;;;;;;;132.15;53.85;;;4.60;99.90;;;;;;6157337;23;20025;-90
2021/10/17 05:08:54;;;;;;;122.78;51.78;;;4.60;99.90;;;;;;6117416;23;20033;-91
2021/10/17 05:11:41;;;;;;;116.43;53.78;;;4.60;99.90;;;;;;6117141;23;20041;-91
2021/10/17 05:14:29;;;;;;;129.18;55.17;;;4.60;99.90;;;;;;6172721;23;20041;-90
2021/10/17 05:17:18;;;;;;;138.60;56.50;;;4.70;99.90;;;;;;6153669;23;20021;-90
2021/10/17 05:20:06;;;;;;;133.75;56.70;;;4.70;99.90;;;;;;6163523;23;20022;-90
2021/10/17 05:22:53;;;;;;;127.60;52.92;;;4.70;99.90;;;;;;6163749;23;20040;-90
2021/10/17 05:25:43;;;;;;;110.13;52.33;;;4.60;99.90;;;;;;6160445;23;20425;-90
2021/10/17 05:28:32;;;;;;;114.95;50.78;;;4.60;99.90;;;;;;6161150;23;20022;-90
2021/10/17 05:31:21;;;;;;;103.50;49.55;;;4.50;99.90;;;;;;6138010;23;20069;-90
2021/10/17 05:34:15;;;;;;;125.80;52.85;;;4.40;99.90;;;;;;6101975;23;20025;-89
2021/10/17 05:37:04;;;;;;;117.40;50.22;;;4.40;99.90;;;;;;6138066;23;20026;-90
2021/10/17 05:39:52;;;;;;;106.82;51.75;;;4.30;99.90;;;;;;6139328;23;20033;-90
2021/10/17 05:42:42;;;;;;;112.10;50.35;;;4.20;99.90;;;;;;6139476;23;20093;-89
2021/10/17 05:45:30;;;;;;;123.20;53.22;;;4.20;99.90;;;;;;6138229;23;20285;-90
2021/10/17 05:48:18;;;;;;;141.48;57.13;;;4.20;99.90;;;;;;6116974;23;20041;-89
2021/10/17 05:51:05;;;;;;;159.95;59.78;;;4.20;99.90;;;;;;6139397;23;20473;-91
2021/10/17 05:53:52;;;;;;;147.38;56.78;;;4.10;99.90;;;;;;6117630;23;20022;-91
2021/10/17 05:56:40;;;;;;;153.23;57.20;;;4.10;99.90;;;;;;6138867;23;20026;-90
2021/10/17 05:59:28;;;;;;;146.70;61.70;;;4.10;99.90;;;;;;6156953;23;20080;-91
2021/10/17 06:02:19;;;;;;;136.95;57.45;;;4.10;99.90;;;;;;6119485;23;20150;-91
2021/10/17 06:05:09;;;;;;;119.33;44.57;;;4.20;99.90;;;;;;6163273;23;20355;-89
2021/10/17 06:08:01;;;;;;;154.02;60.53;;;4.20;99.90;;;;;;6167480;23;20100;-90
2021/10/17 06:10:54;;;;;;;170.05;60.28;;;4.20;99.90;;;;;;6113667;23;20037;-90
2021/10/17 06:13:41;;;;;;;158.13;58.42;;;4.30;99.90;;;;;;6154769;23;20044;-90
2021/10/17 06:16:30;;;;;;;145.35;59.33;;;4.30;99.90;;;;;;6133087;23;20105;-88
2021/10/17 06:19:18;;;;;;;169.23;56.90;;;4.30;99.90;;;;;;6132421;23;20036;-90
2021/10/17 06:22:06;;;;;;;168.68;59.88;;;4.30;99.90;;;;;;6135349;23;20049;-90
2021/10/17 06:24:53;;;;;;;172.93;59.80;;;4.40;99.90;;;;;;6114693;23;20048;-90
2021/10/17 06:27:42;;;;;;;147.70;57.90;;;4.40;99.90;;;;;;6116358;23;20539;-90
2021/10/17 06:30:29;;;;;;;147.48;57.60;;;4.40;99.90;;;;;;6134932;23;20107;-90
2021/10/17 06:33:17;;;;;;;167.57;59.28;;;4.50;99.90;;;;;;6157252;23;20029;-90
2021/10/17 06:36:05;;;;;;;167.48;60.22;;;4.60;99.90;;;;;;6156133;23;20025;-89
2021/10/17 06:38:54;;;;;;;196.20;68.57;;;4.80;99.90;;;;;;6134882;23;20037;-89
2021/10/17 06:41:42;;;;;;;175.48;66.57;;;5.00;99.90;;;;;;6136818;23;20048;-89
2021/10/17 06:44:36;;;;;;;194.07;70.47;;;5.10;99.90;;;;;;6118131;23;20026;-88
2021/10/17 06:47:25;;;;;;;167.20;65.65;;;5.20;99.90;;;;;;6155709;23;20037;-88
2021/10/17 06:50:14;;;;;;;196.43;71.18;;;5.30;99.90;;;;;;6154520;23;20115;-89
2021/10/17 06:53:05;;;;;;;192.50;70.65;;;5.50;99.90;;;;;;6135414;23;20092;-91
2021/10/17 06:55:53;;;;;;;180.20;68.13;;;5.70;99.90;;;;;;6133680;23;20029;-90
2021/10/17 06:58:41;;;;;;;173.05;65.68;;;5.80;99.90;;;;;;6153999;23;20037;-91
2021/10/17 07:01:28;;;;;;;153.68;63.25;;;6.00;99.90;;;;;;6134663;23;20097;-91
2021/10/17 07:04:16;;;;;;;172.32;66.15;;;6.10;99.90;;;;;;6119106;23;20341;-89
2021/10/17 07:07:03;;;;;;;129.07;58.17;;;6.30;99.90;;;;;;6136561;23;20029;-86
2021/10/17 07:09:53;;;;;;;141.82;63.15;;;6.50;99.90;;;;;;6160874;23;20056;-89
2021/10/17 07:12:41;;;;;;;136.45;59.92;;;6.70;99.90;;;;;;6156958;23;20025;-89
2021/10/17 07:15:36;;;;;;;123.00;56.28;;;7.00;99.90;;;;;;6114981;23;20112;-89
2021/10/17 07:18:26;;;;;;;101.80;50.63;;;7.50;99.90;;;;;;6135335;23;20025;-89
2021/10/17 07:21:14;;;;;;;77.72;42.88;;;7.80;99.90;;;;;;6115302;23;20018;-90
2021/10/17 07:24:03;;;;;;;56.03;35.63;;;8.00;99.90;;;;;;6156442;23;20679;-91
2021/10/17 07:26:51;;;;;;;49.95;31.38;;;8.20;99.90;;;;;;6158755;23;20025;-90
2021/10/17 07:29:39;;;;;;;39.60;28.67;;;8.50;99.90;;;;;;6134567;23;20049;-90
2021/10/17 07:32:27;;;;;;;36.47;26.30;;;8.50;99.90;;;;;;6114001;23;20037;-90
2021/10/17 07:35:16;;;;;;;37.20;26.00;;;8.40;99.90;;;;;;6133479;23;20498;-89
2021/10/17 07:38:03;;;;;;;35.40;25.65;;;8.30;99.90;;;;;;6157099;23;20030;-90
2021/10/17 07:40:50;;;;;;;44.55;26.52;;;8.40;99.90;;;;;;6154466;23;20061;-88
2021/10/17 07:43:38;;;;;;;35.45;24.73;;;8.50;99.90;;;;;;6116215;23;20029;-89
2021/10/17 07:46:26;;;;;;;39.28;26.65;;;8.50;99.90;;;;;;6136338;23;20026;-88
2021/10/17 07:49:14;;;;;;;37.33;25.60;;;8.80;99.90;;;;;;6155094;23;20029;-89
2021/10/17 07:52:01;;;;;;;39.33;26.25;;;9.00;99.90;;;;;;6139254;23;20036;-89
2021/10/17 07:54:49;;;;;;;35.90;24.75;;;9.30;99.90;;;;;;6162144;23;20044;-91
2021/10/17 07:57:54;;;;;;;36.75;22.85;;;9.80;99.90;;;;;;6153372;23;20556;-88
2021/10/17 08:00:49;;;;;;;31.45;22.02;;;10.20;99.90;;;;;;6117474;23;20022;-89
2021/10/17 08:03:39;;;;;;;32.63;21.58;;;10.60;99.90;;;;;;6153046;23;20097;-90
2021/10/17 08:06:28;;;;;;;28.88;19.98;;;11.10;99.90;;;;;;6134594;23;20839;-88
2021/10/17 08:09:17;;;;;;;30.30;20.98;;;11.40;99.90;;;;;;6152792;23;20088;-87
2021/10/17 08:12:07;;;;;;;28.52;21.52;;;11.40;99.90;;;;;;6131054;23;20017;-87
2021/10/17 08:14:57;;;;;;;36.38;23.27;;;11.00;99.90;;;;;;6131477;23;20076;-88
2021/10/17 08:17:44;;;;;;;33.42;24.13;;;10.50;99.90;;;;;;6154359;23;20117;-89
2021/10/17 08:20:31;;;;;;;34.22;22.67;;;10.20;99.90;;;;;;6153978;23;20022;-90
2021/10/17 08:23:19;;;;;;;36.25;23.30;;;10.20;99.90;;;;;;6151699;23;20145;-88
2021/10/17 08:26:09;;;;;;;31.55;22.05;;;10.20;99.90;;;;;;6132980;23;20116;-88
2021/10/17 08:28:57;;;;;;;33.83;22.83;;;10.10;99.90;;;;;;6152992;23;20037;-88
2021/10/17 08:31:44;;;;;;;32.60;22.80;;;10.20;99.90;;;;;;6153053;23;20037;-88
2021/10/17 08:34:37;;;;;;;35.58;22.42;;;10.30;99.90;;;;;;6153575;23;20125;-89
2021/10/17 08:37:24;;;;;;;32.17;21.02;;;10.50;99.90;;;;;;6152964;23;20033;-87
2021/10/17 08:40:11;;;;;;;30.65;21.70;;;10.50;99.90;;;;;;6131499;23;20393;-88
2021/10/17 08:43:03;;;;;;;31.23;22.08;;;10.50;99.90;;;;;;6150395;23;20104;-86
2021/10/17 08:45:51;;;;;;;32.42;21.33;;;10.60;99.90;;;;;;6151472;23;20089;-88
2021/10/17 08:48:46;;;;;;;31.27;22.20;;;10.80;99.90;;;;;;6153043;23;20044;-88
2021/10/17 08:51:35;;;;;;;30.98;21.20;;;10.90;99.90;;;;;;6153998;23;20388;-88
2021/10/17 08:54:23;;;;;;;26.55;19.13;;;11.10;99.90;;;;;;6153091;23;20664;-89
2021/10/17 08:57:15;;;;;;;27.40;17.67;;;11.30;99.90;;;;;;6134848;23;20058;-88
2021/10/17 09:00:03;;;;;;;26.05;18.85;;;11.70;99.90;;;;;;6151129;23;20080;-89
2021/10/17 09:02:52;;;;;;;23.85;17.45;;;12.40;99.90;;;;;;6147579;23;20425;-90
2021/10/17 09:05:43;;;;;;;24.67;17.40;;;13.40;99.90;;;;;;6132996;23;20128;-90
2021/10/17 09:08:31;;;;;;;22.03;15.63;;;14.30;99.90;;;;;;6155805;23;20080;-90
2021/10/17 09:11:58;;;;;;;18.98;13.93;;;15.20;99.90;;;;;;6155682;23;20096;-93
2021/10/17 09:14:51;;;;;;;17.48;12.93;;;16.50;99.90;;;;;;6135579;23;20018;-88
2021/10/17 09:17:38;;;;;;;15.30;12.38;;;17.40;96.00;;;;;;6116398;23;20033;-89
2021/10/17 09:21:10;;;;;;;16.55;12.95;;;18.00;92.30;;;;;;6126853;23;20079;-89
2021/10/17 09:24:35;;;;;;;14.85;12.45;;;18.40;90.20;;;;;;6117940;23;20301;-89
2021/10/17 09:27:24;;;;;;;14.98;11.77;;;19.20;82.60;;;;;;6136148;23;20044;-88
2021/10/17 09:30:16;;;;;;;16.70;12.18;;;19.40;77.70;;;;;;6166836;23;20045;-89
2021/10/17 09:33:19;;;;;;;15.30;12.43;;;19.40;77.40;;;;;;6150801;23;20033;-88
2021/10/17 09:36:28;;;;;;;17.00;12.35;;;19.30;76.10;;;;;;6168430;23;20033;-88
2021/10/17 09:39:32;;;;;;;14.85;12.35;;;18.90;78.00;;;;;;6170540;23;20036;-88
2021/10/17 09:42:21;;;;;;;14.50;12.18;;;19.60;76.60;;;;;;6130008;23;20026;-89
2021/10/17 09:45:23;;;;;;;14.13;12.15;;;20.00;73.00;;;;;;6131302;23;20053;-88
2021/10/17 09:48:28;;;;;;;13.80;12.23;;;20.60;70.00;;;;;;6156356;23;20022;-88
2021/10/17 09:51:26;;;;;;;14.27;12.20;;;20.70;69.50;;;;;;6151144;23;20029;-88
2021/10/17 09:54:15;;;;;;;13.70;11.88;;;20.60;67.40;;;;;;6176401;23;20057;-87
2021/10/17 09:57:05;;;;;;;14.73;12.07;;;20.20;69.70;;;;;;6156488;23;20021;-90
2021/10/17 09:59:55;;;;;;;13.65;11.82;;;20.40;69.10;;;;;;6158001;23;20025;-88
2021/10/17 10:02:46;;;;;;;13.10;11.68;;;21.00;67.30;;;;;;6178297;23;20049;-90
2021/10/17 10:05:39;;;;;;;14.77;13.15;;;21.30;64.80;;;;;;6170868;23;20045;-86
2021/10/17 10:08:28;;;;;;;14.00;11.75;;;21.00;65.60;;;;;;6148480;23;20114;-89
2021/10/17 10:11:21;;;;;;;16.45;12.30;;;21.10;66.60;;;;;;6171837;23;20072;-89
2021/10/17 10:14:50;;;;;;;17.00;12.70;;;21.60;64.60;;;;;;6150629;23;20093;-88
2021/10/17 10:17:45;;;;;;;13.77;11.82;;;22.00;64.00;;;;;;6134533;23;20056;-87
2021/10/17 10:20:33;;;;;;;;;;;22.00;62.20;;;;;;6133853;23;20749;-87
2021/10/17 10:23:23;;;;;;;15.32;13.35;;;22.20;61.30;;;;;;6156135;23;19947;-86
2021/10/17 10:26:13;;;;;;;15.10;12.30;;;22.40;59.80;;;;;;6155245;23;20105;-85
2021/10/17 10:29:03;;;;;;;14.75;12.95;;;23.10;58.60;;;;;;6156187;23;20416;-89
2021/10/17 10:31:52;;;;;;;16.02;12.98;;;23.30;57.50;;;;;;6135442;23;20026;-89
2021/10/17 10:34:39;;;;;;;15.30;12.48;;;23.10;56.80;;;;;;6137188;23;20029;-89
2021/10/17 10:37:32;;;;;;;13.40;11.95;;;23.10;57.30;;;;;;6159032;23;20032;-91
2021/10/17 10:41:30;;;;;;;;;;;;;;;;;;;;;
2021/10/17 10:44:52;;;;;;;12.98;11.20;;;24.80;53.40;;;;;;6042931;23;20122;-90
2021/10/17 10:48:08;;;;;;;14.45;12.88;;;23.90;54.60;;;;;;6026143;23;20110;-90
2021/10/17 10:51:10;;;;;;;12.80;11.35;;;23.20;55.80;;;;;;6024053;23;20027;-90
2021/10/17 10:54:34;;;;;;;15.52;12.77;;;23.00;57.00;;;;;;6037276;23;20038;-91
2021/10/17 10:57:53;;;;;;;14.27;12.40;;;23.20;57.60;;;;;;5973279;23;20106;-92
2021/10/17 11:02:07;;;;;;;;;;;;;;;;;;;;;
2021/10/17 11:05:28;;;;;;;;;;;;;;;;;;;;;
2021/10/17 11:08:46;;;;;;;13.98;12.25;;;25.80;51.10;;;;;;5841770;24;20504;-90
2021/10/17 11:11:43;;;;;;;14.38;11.45;;;26.30;49.20;;;;;;5856633;24;20027;-89
2021/10/17 11:15:00;;;;;;;13.25;11.77;;;26.80;49.20;;;;;;5848757;24;20027;-90
2021/10/17 11:18:07;;;;;;;13.43;12.02;;;26.60;47.50;;;;;;5865754;24;20403;-90
2021/10/17 11:21:18;;;;;;;;;;;;;;;;;;;;;
2021/10/17 11:25:04;;;;;;;;;;;;;;;;;;;;;
2021/10/17 11:29:03;;;;;;;16.42;12.18;;;25.40;50.30;;;;;;6004674;23;19918;-90
2021/10/17 11:32:16;;;;;;;14.52;12.70;;;25.70;49.50;;;;;;6041933;23;20355;-92
2021/10/17 11:35:51;;;;;;;14.20;12.15;;;25.30;49.70;;;;;;6047047;23;20023;-91
2021/10/17 11:54:45;;;;;;;14.75;11.25;;;26.10;49.10;;;;;;5956374;24;20044;-91
2021/10/17 11:58:20;;;;;;;11.93;10.63;;;25.70;47.90;;;;;;6035128;23;20045;-91
2021/10/17 12:05:53;;;;;;;11.80;10.60;;;26.80;47.30;;;;;;5982892;24;20032;-91
2021/10/17 12:08:41;;;;;;;10.45;9.35;;;26.80;47.80;;;;;;5967335;23;20143;-91
2021/10/17 12:11:32;;;;;;;12.85;11.13;;;27.50;46.50;;;;;;6022149;23;20023;-90
2021/10/17 12:14:26;;;;;;;13.27;11.88;;;27.10;47.50;;;;;;6003703;23;20053;-89
2021/10/17 12:17:24;;;;;;;;;;;;;;;;;;;;;
2021/10/17 12:21:07;;;;;;;;;;;;;;;;;;;;;
2021/10/17 12:24:00;;;;;;;11.68;10.43;;;26.10;48.10;;;;;;6163721;23;20029;-90
2021/10/17 12:26:57;;;;;;;13.88;12.38;;;24.30;50.80;;;;;;6121558;23;20030;-92
2021/10/17 12:30:08;;;;;;;14.23;12.10;;;23.20;53.90;;;;;;6143970;23;20627;-91
2021/10/17 12:33:10;;;;;;;14.00;11.93;;;20.80;58.50;;;;;;6140786;23;20033;-92
2021/10/17 12:36:00;;;;;;;15.13;12.60;;;19.60;63.90;;;;;;6159445;23;20021;-92
2021/10/17 12:38:57;;;;;;;15.65;11.82;;;19.00;67.30;;;;;;6169608;23;20088;-92
2021/10/17 12:41:48;;;;;;;16.40;12.85;;;18.50;70.20;;;;;;6160949;23;20025;-89
2021/10/17 12:44:44;;;;;;;14.77;12.85;;;18.00;72.30;;;;;;6088748;23;20033;-91
2021/10/17 12:47:57;;;;;;;16.38;13.75;;;17.40;76.70;;;;;;6131510;23;20022;-91
2021/10/17 12:51:37;;;;;;;;;;;;;;;;;;;;;
2021/10/17 12:55:03;;;;;;;17.05;14.10;;;17.30;80.60;;;;;;6132770;23;20033;-91
2021/10/17 12:58:15;;;;;;;;;;;;;;;;;;;;;
2021/10/17 13:01:39;;;;;;;16.23;12.93;;;16.90;82.60;;;;;;6041013;23;20027;-92
2021/10/17 13:04:38;;;;;;;;;;;17.70;82.20;;;;;;6040937;23;20031;-90
2021/10/17 13:07:31;;;;;;;16.40;13.00;;;18.40;77.90;;;;;;6040355;23;19929;-90
2021/10/17 13:10:28;;;;;;;17.83;14.02;;;18.30;75.90;;;;;;6039409;23;20031;-92
2021/10/17 13:13:22;;;;;;;16.55;13.77;;;17.70;78.90;;;;;;6040880;23;20072;-92
2021/10/17 13:17:10;;;;;;;;;;;;;;;;;;;;;
2021/10/17 13:20:43;;;;;;;;;;;;;;;;;;;;;
2021/10/17 13:24:20;;;;;;;;;;;;;;;;;;;;;
2021/10/17 13:27:32;;;;;;;;;;;;;;;;;;;;;
2021/10/17 13:30:43;;;;;;;;;;;;;;;;;;;;;
2021/10/17 13:33:57;;;;;;;15.13;12.85;;;23.10;57.80;;;;;;6041248;23;20319;-93
2021/10/17 13:37:07;;;;;;;16.40;13.63;;;22.90;57.90;;;;;;6009514;23;20480;-90
2021/10/17 13:39:57;;;;;;;18.35;13.50;;;23.40;55.70;;;;;;6010132;23;20023;-90
2021/10/17 13:46:27;;;;;;;16.10;12.18;;;22.30;58.80;;;;;;6051534;23;20027;-91
2021/10/17 13:49:48;;;;;;;;;;;;;;;;;;;;;
2021/10/17 13:52:58;;;;;;;17.63;14.00;;;21.70;60.10;;;;;;6048399;23;20430;-91
2021/10/17 13:56:16;;;;;;;;;;;;;;;;;;;;;
2021/10/17 13:59:18;;;;;;;19.58;14.75;;;21.10;62.20;;;;;;6037924;23;20038;-89
2021/10/17 14:02:08;;;;;;;19.58;14.65;;;20.90;61.90;;;;;;6123277;23;20057;-88
2021/10/17 14:04:56;;;;;;;19.60;15.45;;;20.30;62.40;;;;;;6136737;23;20401;-89
2021/10/17 14:07:44;;;;;;;21.88;16.35;;;18.70;69.60;;;;;;6152914;23;20029;-89
2021/10/17 14:10:54;;;;;;;22.52;16.70;;;17.40;74.30;;;;;;6157089;23;20037;-90
2021/10/17 14:13:47;;;;;;;25.08;19.13;;;16.20;80.70;;;;;;6157348;23;20040;-91
2021/10/17 14:16:37;;;;;;;29.38;19.05;;;15.30;86.60;;;;;;6159634;23;20076;-90
2021/10/17 14:19:25;;;;;;;25.60;18.17;;;15.40;90.00;;;;;;6162329;23;20045;-91
2021/10/17 14:22:14;;;;;;;28.52;19.70;;;15.90;88.20;;;;;;6155539;23;20444;-91
2021/10/17 14:25:01;;;;;;;26.05;18.35;;;15.40;90.30;;;;;;6153962;23;20049;-90
2021/10/17 14:27:51;;;;;;;26.65;19.17;;;15.10;91.30;;;;;;6155080;23;20025;-89
2021/10/17 14:30:42;;;;;;;26.05;18.98;;;15.20;91.60;;;;;;6153675;23;20065;-91
2021/10/17 14:33:30;;;;;;;28.65;20.30;;;15.40;91.60;;;;;;6155598;23;20022;-91
2021/10/17 14:36:17;;;;;;;31.15;19.73;;;15.90;91.40;;;;;;6154975;23;20025;-91
2021/10/17 14:39:05;;;;;;;26.42;19.35;;;16.40;90.00;;;;;;6155644;23;20480;-88
2021/10/17 14:41:58;;;;;;;28.15;20.27;;;16.90;86.50;;;;;;6155996;23;20469;-92
2021/10/17 14:44:46;;;;;;;28.42;19.92;;;16.90;84.10;;;;;;6154960;23;20053;-90
2021/10/17 14:47:35;;;;;;;28.52;19.73;;;16.90;84.30;;;;;;6159435;23;20030;-91
2021/10/17 14:50:26;;;;;;;30.70;20.23;;;16.70;84.70;;;;;;6160699;23;20109;-90
2021/10/17 14:53:13;;;;;;;30.60;20.23;;;16.80;84.60;;;;;;6160357;23;20029;-91
2021/10/17 14:56:01;;;;;;;33.65;22.48;;;16.50;85.40;;;;;;6159789;23;20026;-91
2021/10/17 14:58:49;;;;;;;31.02;21.05;;;15.60;89.30;;;;;;6159919;23;20038;-91
2021/10/17 15:01:37;;;;;;;31.08;21.35;;;15.10;92.20;;;;;;6159849;23;20033;-91
2021/10/17 15:04:25;;;;;;;33.85;22.63;;;14.70;93.70;;;;;;6165606;23;20030;-89
2021/10/17 15:07:17;;;;;;;35.17;22.30;;;14.40;95.20;;;;;;6165900;23;20093;-91
2021/10/17 15:10:08;;;;;;;36.20;23.23;;;14.20;96.60;;;;;;6156534;23;20036;-90
2021/10/17 15:12:55;;;;;;;38.63;24.20;;;13.70;99.30;;;;;;6162852;23;20092;-91
2021/10/17 15:15:45;;;;;;;40.15;25.67;;;13.20;99.90;;;;;;6179153;23;20045;-90
2021/10/17 15:18:33;;;;;;;36.65;24.60;;;12.70;99.90;;;;;;6178026;23;20044;-90
2021/10/17 15:21:20;;;;;;;42.72;26.67;;;12.20;99.90;;;;;;6170539;23;20028;-91
2021/10/17 15:24:13;;;;;;;41.15;27.30;;;11.70;99.90;;;;;;6167612;23;20094;-91
2021/10/17 15:27:05;;;;;;;44.33;28.05;;;11.50;99.90;;;;;;6173635;23;20022;-91
2021/10/17 15:30:12;;;;;;;49.53;27.42;;;11.40;99.90;;;;;;6168731;23;20025;-91
2021/10/17 15:33:00;;;;;;;45.92;28.38;;;11.10;99.90;;;;;;6168452;23;20030;-91
2021/10/17 15:36:02;;;;;;;47.47;28.58;;;10.90;99.90;;;;;;6172781;23;20013;-90
2021/10/17 15:38:57;;;;;;;52.55;30.25;;;10.70;99.90;;;;;;6178719;23;20064;-92